Time;durP1;ratioP1;P1;durP2;ratioP2;P2;SDS_P1;SDS_P2;PMS_P1;PMS_P2;Temp;Humidity;BMP_temperature;BMP_pressure;BME280_temperature;BME280_humidity;BME280_pressure;Samples;Min_cycle;Max_cycle;Signal;HPM_P1;HPM_P2
2021/11/09 00:01:15;;;;;;;49.45;15.00;;;;;;;;;;4975782;28;20047;-75
2021/11/09 00:03:47;;;;;;;48.50;14.07;;;;;;;;;;4975096;28;20480;-72
2021/11/09 00:08:55;;;;;;;47.60;13.85;;;;;;;;;;4975340;28;20049;-75
2021/11/09 00:11:25;;;;;;;44.22;12.50;;;;;;;;;;4974959;28;20047;-76
2021/11/09 00:13:55;;;;;;;55.28;12.40;;;;;;;;;;4975408;28;20047;-76
2021/11/09 00:16:23;;;;;;;45.08;13.27;;;;;;;;;;4975171;28;20066;-76
2021/11/09 00:18:51;;;;;;;45.38;13.02;;;;;;;;;;4974759;28;20039;-75
2021/11/09 00:21:19;;;;;;;48.80;12.57;;;;;;;;;;4975077;28;20126;-71
2021/11/09 00:23:47;;;;;;;52.05;13.52;;;;;;;;;;4974798;28;20042;-72
2021/11/09 00:26:15;;;;;;;47.80;13.00;;;;;;;;;;4975570;28;20042;-73
2021/11/09 00:28:43;;;;;;;50.45;13.40;;;;;;;;;;4974901;28;20042;-76
2021/11/09 00:31:10;;;;;;;47.85;12.80;;;;;;;;;;4957582;28;20466;-75
2021/11/09 00:33:38;;;;;;;51.88;12.30;;;;;;;;;;4957505;28;20058;-71
2021/11/09 00:36:06;;;;;;;39.80;12.27;;;;;;;;;;4974987;28;20035;-72
2021/11/09 00:38:35;;;;;;;50.22;11.90;;;;;;;;;;4974369;28;20046;-75
2021/11/09 00:41:03;;;;;;;40.30;11.93;;;;;;;;;;4974796;28;20042;-75
2021/11/09 00:43:32;;;;;;;47.70;12.48;;;;;;;;;;4975176;28;20507;-72
2021/11/09 00:45:59;;;;;;;50.30;13.10;;;;;;;;;;4974785;28;20129;-72
2021/11/09 00:48:29;;;;;;;55.65;12.82;;;;;;;;;;4974721;28;20053;-72
2021/11/09 00:50:57;;;;;;;54.13;12.70;;;;;;;;;;4974863;28;20066;-72
2021/11/09 00:53:25;;;;;;;55.45;12.82;;;;;;;;;;4973812;28;20536;-75
2021/11/09 00:55:53;;;;;;;48.58;13.27;;;;;;;;;;4957153;28;20066;-71
2021/11/09 00:58:22;;;;;;;47.25;14.00;;;;;;;;;;4974640;28;20042;-75
2021/11/09 01:00:49;;;;;;;47.95;13.07;;;;;;;;;;4974475;28;20126;-75
2021/11/09 01:03:17;;;;;;;48.03;14.02;;;;;;;;;;4974161;28;20047;-75
2021/11/09 01:05:45;;;;;;;54.22;12.73;;;;;;;;;;4974111;28;20050;-72
2021/11/09 01:08:15;;;;;;;48.45;12.38;;;;;;;;;;4973716;28;20445;-75
2021/11/09 01:10:45;;;;;;;63.20;13.60;;;;;;;;;;4957170;28;20064;-72
2021/11/09 01:13:14;;;;;;;42.63;12.65;;;;;;;;;;4974245;28;20304;-74
2021/11/09 01:15:51;;;;;;;56.78;12.93;;;;;;;;;;4973928;28;20053;-75
2021/11/09 01:18:29;;;;;;;52.20;13.35;;;;;;;;;;4974391;28;20121;-72
2021/11/09 01:20:57;;;;;;;43.15;11.85;;;;;;;;;;4973731;28;20047;-75
2021/11/09 01:23:25;;;;;;;43.00;12.77;;;;;;;;;;4986404;28;20496;-71
2021/11/09 01:25:53;;;;;;;42.65;12.57;;;;;;;;;;4973309;28;20492;-75
2021/11/09 01:28:22;;;;;;;47.50;12.15;;;;;;;;;;4973435;28;20049;-75
2021/11/09 01:30:52;;;;;;;45.05;11.93;;;;;;;;;;4974017;28;20496;-75
2021/11/09 01:33:20;;;;;;;56.08;14.40;;;;;;;;;;4974017;28;20050;-72
2021/11/09 01:35:47;;;;;;;46.97;12.90;;;;;;;;;;4973460;28;20133;-72
2021/11/09 01:38:18;;;;;;;52.25;13.90;;;;;;;;;;4974264;28;20101;-72
2021/11/09 01:40:46;;;;;;;53.08;12.73;;;;;;;;;;4973611;28;20039;-74
2021/11/09 01:43:15;;;;;;;45.47;12.43;;;;;;;;;;4974020;28;20531;-72
2021/11/09 01:45:46;;;;;;;41.30;12.45;;;;;;;;;;4974392;28;20105;-76
2021/11/09 01:48:15;;;;;;;46.55;12.65;;;;;;;;;;4974243;28;20105;-75
2021/11/09 01:50:46;;;;;;;45.35;11.75;;;;;;;;;;4973339;28;20065;-72
2021/11/09 01:53:13;;;;;;;44.85;12.48;;;;;;;;;;4974188;28;20097;-75
2021/11/09 01:55:41;;;;;;;57.15;12.95;;;;;;;;;;4973271;28;20423;-75
2021/11/09 01:58:17;;;;;;;46.25;13.10;;;;;;;;;;4973693;28;20503;-69
2021/11/09 02:00:53;;;;;;;42.47;11.93;;;;;;;;;;4956940;28;20113;-69
2021/11/09 02:03:21;;;;;;;49.50;12.00;;;;;;;;;;4974030;28;20046;-73
2021/11/09 02:05:49;;;;;;;48.08;12.52;;;;;;;;;;4973383;28;20188;-73
2021/11/09 02:08:17;;;;;;;47.47;12.23;;;;;;;;;;4974021;28;20085;-70
2021/11/09 02:10:46;;;;;;;38.03;12.10;;;;;;;;;;4973456;28;20571;-69
2021/11/09 02:13:17;;;;;;;53.65;12.98;;;;;;;;;;4973929;28;20452;-73
2021/11/09 02:15:45;;;;;;;46.55;12.75;;;;;;;;;;4975793;28;20093;-70
2021/11/09 02:18:14;;;;;;;47.45;13.70;;;;;;;;;;4977627;28;20432;-73
2021/11/09 02:20:51;;;;;;;45.20;12.55;;;;;;;;;;4976819;28;20061;-73
2021/11/09 02:23:20;;;;;;;40.50;12.30;;;;;;;;;;4977249;28;20097;-73
2021/11/09 02:25:47;;;;;;;46.17;12.85;;;;;;;;;;4977331;28;20050;-70
2021/11/09 02:28:15;;;;;;;51.28;12.68;;;;;;;;;;4977351;28;20517;-73
2021/11/09 02:30:43;;;;;;;54.95;14.02;;;;;;;;;;4977006;28;20043;-73
2021/11/09 02:33:10;;;;;;;48.58;13.65;;;;;;;;;;4959772;28;20470;-73
2021/11/09 02:35:39;;;;;;;48.08;14.07;;;;;;;;;;4976308;28;20098;-73
2021/11/09 02:38:06;;;;;;;37.33;13.32;;;;;;;;;;4976919;28;20043;-73
2021/11/09 02:40:34;;;;;;;34.60;11.90;;;;;;;;;;4977316;28;20039;-73
2021/11/09 02:43:05;;;;;;;41.45;13.07;;;;;;;;;;4977126;28;20039;-69
2021/11/09 02:45:45;;;;;;;53.83;13.27;;;;;;;;;;4977251;28;20086;-73
2021/11/09 02:48:33;;;;;;;49.80;13.20;;;;;;;;;;4976972;28;20042;-73
2021/11/09 02:51:12;;;;;;;45.70;12.50;;;;;;;;;;4976608;28;20389;-73
2021/11/09 02:53:58;;;;;;;39.90;12.23;;;;;;;;;;4976548;28;20047;-73
2021/11/09 02:56:31;;;;;;;40.55;12.70;;;;;;;;;;4976558;28;20050;-74
2021/11/09 02:59:06;;;;;;;57.05;13.65;;;;;;;;;;4975579;28;20046;-73
2021/11/09 03:01:42;;;;;;;42.50;12.43;;;;;;;;;;4975696;28;20039;-70
2021/11/09 03:04:27;;;;;;;46.67;15.13;;;;;;;;;;4976052;28;20039;-73
2021/11/09 03:12:05;;;;;;;37.72;13.13;;;;;;;;;;4976136;28;20134;-69
2021/11/09 03:14:33;;;;;;;47.13;13.52;;;;;;;;;;4976612;28;20047;-73
2021/11/09 03:17:20;;;;;;;40.78;13.18;;;;;;;;;;4976263;28;20074;-70
2021/11/09 03:19:55;;;;;;;45.47;13.32;;;;;;;;;;4975983;28;20053;-73
2021/11/09 03:47:23;;;;;;;44.40;12.82;;;;;;;;;;4975067;28;20152;-70
2021/11/09 03:49:52;;;;;;;46.47;13.02;;;;;;;;;;4975641;28;20047;-69
2021/11/09 03:52:26;;;;;;;45.80;13.88;;;;;;;;;;4975703;28;20050;-69
2021/11/09 03:55:04;;;;;;;44.45;13.63;;;;;;;;;;4975492;28;20126;-69
2021/11/09 03:57:46;;;;;;;43.88;13.15;;;;;;;;;;4975584;28;20047;-73
2021/11/09 04:00:26;;;;;;;42.95;14.00;;;;;;;;;;4975018;28;20035;-70
2021/11/09 04:03:00;;;;;;;49.95;14.10;;;;;;;;;;4975131;28;20043;-70
2021/11/09 04:05:35;;;;;;;40.30;14.35;;;;;;;;;;4975701;28;20117;-73
2021/11/09 04:11:14;;;;;;;57.90;14.63;;;;;;;;;;4956488;28;20043;-73
2021/11/09 04:14:21;;;;;;;64.40;15.98;;;;;;;;;;4975111;28;20122;-70
2021/11/09 04:29:26;;;;;;;51.08;12.88;;;;;;;;;;4974992;28;20055;-73
2021/11/09 05:02:20;;;;;;;42.50;13.02;;;;;;;;;;4994279;28;20125;-72
2021/11/09 05:10:24;;;;;;;43.15;11.52;;;;;;;;;;4993528;28;20149;-72
2021/11/09 05:12:51;;;;;;;50.08;12.23;;;;;;;;;;4993933;28;20050;-70
2021/11/09 05:15:20;;;;;;;52.15;12.93;;;;;;;;;;4992781;28;20038;-72
2021/11/09 05:17:48;;;;;;;48.67;11.23;;;;;;;;;;4993872;28;20046;-74
2021/11/09 05:20:15;;;;;;;56.88;12.13;;;;;;;;;;4993827;28;20050;-72
2021/11/09 05:22:45;;;;;;;44.38;10.75;;;;;;;;;;4993987;28;20066;-72
2021/11/09 05:25:13;;;;;;;46.00;12.35;;;;;;;;;;4994324;28;20353;-70
2021/11/09 05:27:41;;;;;;;43.47;11.02;;;;;;;;;;4994153;28;20046;-73
2021/11/09 05:30:09;;;;;;;54.08;12.15;;;;;;;;;;4993545;28;20046;-73
2021/11/09 05:32:36;;;;;;;63.85;11.82;;;;;;;;;;4964884;28;20047;-69
2021/11/09 05:35:06;;;;;;;47.40;11.93;;;;;;;;;;4974369;28;20051;-69
2021/11/09 05:37:39;;;;;;;49.25;12.82;;;;;;;;;;4956448;28;20047;-71
2021/11/09 05:40:08;;;;;;;55.33;11.40;;;;;;;;;;4974297;28;20443;-70
2021/11/09 05:42:37;;;;;;;53.83;12.10;;;;;;;;;;4974182;28;20093;-74
2021/11/09 05:45:05;;;;;;;39.30;11.75;;;;;;;;;;4974267;28;20129;-74
2021/11/09 05:47:33;;;;;;;35.28;11.27;;;;;;;;;;4974247;28;20061;-74
2021/11/09 05:50:01;;;;;;;61.10;13.32;;;;;;;;;;4976584;28;20069;-71
2021/11/09 05:52:28;;;;;;;48.08;11.40;;;;;;;;;;4960895;28;20082;-74
2021/11/09 05:54:55;;;;;;;51.33;11.70;;;;;;;;;;4977960;28;20237;-72
2021/11/09 05:57:24;;;;;;;43.55;10.95;;;;;;;;;;4977793;28;20042;-75
2021/11/09 05:59:51;;;;;;;47.15;12.20;;;;;;;;;;4977537;28;20134;-72
2021/11/09 06:02:19;;;;;;;49.78;12.88;;;;;;;;;;4977772;28;20042;-72
2021/11/09 06:04:52;;;;;;;59.15;13.32;;;;;;;;;;4977870;28;20066;-75
2021/11/09 06:07:20;;;;;;;45.33;12.90;;;;;;;;;;4978195;28;20503;-72
2021/11/09 06:09:48;;;;;;;41.63;12.73;;;;;;;;;;4977571;28;20042;-71
2021/11/09 06:12:15;;;;;;;44.35;13.13;;;;;;;;;;4977542;28;20386;-74
2021/11/09 06:14:43;;;;;;;52.80;12.70;;;;;;;;;;4977592;28;20042;-72
2021/11/09 06:17:11;;;;;;;40.83;12.75;;;;;;;;;;4977833;28;20404;-75
2021/11/09 06:19:39;;;;;;;44.70;12.45;;;;;;;;;;4973240;28;20050;-74
2021/11/09 06:22:13;;;;;;;47.40;12.15;;;;;;;;;;4996738;28;20571;-74
2021/11/09 06:24:42;;;;;;;50.00;14.20;;;;;;;;;;4995925;28;20045;-71
2021/11/09 06:27:12;;;;;;;54.85;14.27;;;;;;;;;;4996951;28;20038;-71
2021/11/09 06:29:41;;;;;;;50.15;14.10;;;;;;;;;;4996702;28;20050;-75
2021/11/09 06:32:09;;;;;;;48.92;14.23;;;;;;;;;;4995053;28;20042;-74
2021/11/09 06:34:36;;;;;;;56.88;14.23;;;;;;;;;;4996829;28;20046;-71
2021/11/09 06:37:04;;;;;;;48.42;14.48;;;;;;;;;;4996601;28;20042;-76
2021/11/09 06:39:32;;;;;;;51.25;15.13;;;;;;;;;;4996668;28;20038;-75
2021/11/09 06:42:03;;;;;;;58.50;18.50;;;;;;;;;;4994865;28;20120;-72
2021/11/09 06:44:30;;;;;;;57.28;14.98;;;;;;;;;;4995615;28;20054;-75
2021/11/09 06:46:58;;;;;;;49.72;14.52;;;;;;;;;;4995670;28;20392;-72
2021/11/09 06:49:26;;;;;;;44.10;13.20;;;;;;;;;;4995093;28;20440;-76
2021/11/09 06:51:54;;;;;;;46.67;14.88;;;;;;;;;;4993638;28;20042;-72
2021/11/09 06:54:24;;;;;;;50.47;14.25;;;;;;;;;;4996046;28;20417;-72
2021/11/09 06:56:52;;;;;;;50.20;14.73;;;;;;;;;;5000718;28;20049;-72
2021/11/09 06:59:21;;;;;;;51.60;13.25;;;;;;;;;;4995509;28;20043;-75
2021/11/09 07:01:49;;;;;;;57.67;13.52;;;;;;;;;;4994971;28;20118;-72
2021/11/09 07:04:20;;;;;;;55.03;14.68;;;;;;;;;;4996081;28;20050;-76
2021/11/09 07:06:49;;;;;;;43.42;14.80;;;;;;;;;;4996134;28;20058;-72
2021/11/09 07:09:18;;;;;;;39.38;14.07;;;;;;;;;;4994985;28;20137;-72
2021/11/09 07:11:46;;;;;;;49.63;14.43;;;;;;;;;;4995608;28;20045;-75
2021/11/09 07:14:13;;;;;;;43.55;14.52;;;;;;;;;;4995674;28;20042;-72
2021/11/09 07:16:43;;;;;;;41.05;13.00;;;;;;;;;;4994354;28;20125;-72
2021/11/09 07:19:12;;;;;;;44.50;12.82;;;;;;;;;;4995458;28;20051;-77
2021/11/09 07:21:40;;;;;;;42.28;13.27;;;;;;;;;;4995448;28;20066;-71
2021/11/09 07:24:08;;;;;;;32.85;11.80;;;;;;;;;;4995043;28;20046;-71
2021/11/09 07:26:36;;;;;;;49.13;12.93;;;;;;;;;;4995532;28;20469;-72
2021/11/09 07:29:03;;;;;;;47.67;13.85;;;;;;;;;;4995495;28;20046;-71
2021/11/09 07:31:32;;;;;;;49.78;13.77;;;;;;;;;;4995293;28;20047;-71
2021/11/09 07:34:00;;;;;;;49.22;13.05;;;;;;;;;;4995537;28;20046;-69
2021/11/09 07:36:28;;;;;;;52.33;14.07;;;;;;;;;;4995449;28;20049;-75
2021/11/09 07:38:57;;;;;;;49.95;13.82;;;;;;;;;;4994543;28;20054;-76
2021/11/09 07:41:25;;;;;;;54.58;14.38;;;;;;;;;;4995024;28;20069;-77
2021/11/09 07:43:53;;;;;;;46.50;13.55;;;;;;;;;;4995501;28;20096;-77
2021/11/09 07:46:21;;;;;;;55.70;14.40;;;;;;;;;;4995061;28;20066;-73
2021/11/09 07:48:49;;;;;;;48.33;13.30;;;;;;;;;;4977621;28;20078;-76
2021/11/09 07:51:16;;;;;;;50.35;12.43;;;;;;;;;;4994957;28;20054;-72
2021/11/09 07:53:44;;;;;;;43.58;12.48;;;;;;;;;;4993376;28;20392;-72
2021/11/09 07:56:15;;;;;;;45.05;12.73;;;;;;;;;;4993353;28;20047;-73
2021/11/09 08:01:32;;;;;;;44.10;14.00;;;;;;;;;;4980097;28;20440;-71
2021/11/09 08:06:52;;;;;;;40.88;12.23;;;;;;;;;;4994564;28;20061;-71
2021/11/09 08:11:46;;;;;;;45.97;12.27;;;;;;;;;;4994104;28;20470;-71
2021/11/09 08:14:14;;;;;;;59.88;12.77;;;;;;;;;;4998001;28;20061;-71
2021/11/09 08:16:41;;;;;;;43.60;12.35;;;;;;;;;;4984786;28;20042;-76
2021/11/09 08:19:11;;;;;;;45.97;12.00;;;;;;;;;;5052278;23;20062;-71
2021/11/09 08:21:39;;;;;;;43.80;12.18;;;;;;;;;;4936494;29;20047;-75
2021/11/09 08:24:08;;;;;;;45.65;12.40;;;;;;;;;;4936436;29;20130;-71
2021/11/09 08:26:36;;;;;;;48.88;12.20;;;;;;;;;;4936553;29;20130;-76
2021/11/09 08:29:08;;;;;;;55.80;11.65;;;;;;;;;;4936304;29;20055;-71
2021/11/09 08:31:37;;;;;;;37.13;10.00;;;;;;;;;;4936443;29;20465;-75
2021/11/09 08:34:05;;;;;;;41.38;10.75;;;;;;;;;;4936241;29;20040;-71
2021/11/09 08:36:33;;;;;;;37.60;10.77;;;;;;;;;;4935856;29;20058;-76
2021/11/09 08:39:02;;;;;;;38.10;9.65;;;;;;;;;;4936133;29;20044;-73
2021/11/09 08:41:47;;;;;;;36.42;9.23;;;;;;;;;;4936243;29;20047;-72
2021/11/09 08:44:27;;;;;;;37.17;9.15;;;;;;;;;;5070716;28;20367;-75
2021/11/09 08:47:02;;;;;;;33.22;8.88;;;;;;;;;;5069430;28;20381;-74
2021/11/09 08:49:32;;;;;;;34.13;9.02;;;;;;;;;;5070085;28;20076;-71
2021/11/09 08:52:03;;;;;;;44.92;10.50;;;;;;;;;;5069818;28;20094;-74
2021/11/09 08:54:33;;;;;;;41.75;9.35;;;;;;;;;;5068730;28;20140;-75
2021/11/09 08:57:23;;;;;;;31.40;9.50;;;;;;;;;;5068052;28;20073;-72
2021/11/09 09:05:11;;;;;;;36.20;9.65;;;;;;;;;;5069258;28;20079;-75
2021/11/09 09:07:39;;;;;;;39.00;9.93;;;;;;;;;;5068255;28;20495;-75
2021/11/09 09:10:08;;;;;;;43.92;9.55;;;;;;;;;;5069387;28;20046;-74
2021/11/09 09:12:37;;;;;;;34.75;9.23;;;;;;;;;;5069307;28;20123;-74
2021/11/09 09:15:05;;;;;;;34.70;9.18;;;;;;;;;;5069840;28;20377;-72
2021/11/09 09:17:35;;;;;;;37.05;9.48;;;;;;;;;;5069614;28;20045;-71
2021/11/09 09:20:50;;;;;;;32.22;8.35;;;;;;;;;;5068965;28;20123;-71
2021/11/09 09:25:36;;;;;;;32.42;8.82;;;;;;;;;;5069345;28;20044;-75
2021/11/09 09:56:06;;;;;;;35.00;8.05;;;;;;;;;;5034651;28;20048;-71
2021/11/09 09:58:34;;;;;;;30.83;7.03;;;;;;;;;;5023408;28;20038;-76
2021/11/09 10:01:03;;;;;;;36.50;7.38;;;;;;;;;;5029990;28;20049;-72
2021/11/09 10:03:38;;;;;;;28.92;7.47;;;;;;;;;;5030485;28;20115;-76
2021/11/09 10:06:08;;;;;;;25.95;7.22;;;;;;;;;;5032994;28;20048;-72
2021/11/09 10:08:55;;;;;;;28.92;8.45;;;;;;;;;;5035129;28;20052;-76
2021/11/09 10:11:27;;;;;;;23.08;6.45;;;;;;;;;;5032883;28;20077;-70
2021/11/09 10:13:54;;;;;;;27.58;7.13;;;;;;;;;;5035157;28;20117;-71
2021/11/09 10:16:30;;;;;;;31.42;7.85;;;;;;;;;;5024780;28;20065;-76
2021/11/09 10:18:57;;;;;;;35.03;8.93;;;;;;;;;;5023847;28;20057;-72
2021/11/09 10:21:42;;;;;;;26.52;6.97;;;;;;;;;;5035334;28;20459;-72
2021/11/09 10:24:31;;;;;;;28.42;8.23;;;;;;;;;;5033164;28;20044;-77
2021/11/09 10:27:12;;;;;;;33.22;7.50;;;;;;;;;;5033006;28;20069;-72
2021/11/09 10:29:41;;;;;;;30.98;7.65;;;;;;;;;;5023715;28;20092;-76
2021/11/09 10:32:10;;;;;;;31.02;7.93;;;;;;;;;;5034622;28;20034;-77
2021/11/09 10:34:38;;;;;;;29.23;8.30;;;;;;;;;;5034502;28;20046;-72
2021/11/09 10:37:18;;;;;;;29.23;7.50;;;;;;;;;;5034875;28;20389;-77
2021/11/09 10:40:32;;;;;;;28.45;8.40;;;;;;;;;;5030812;28;20065;-73
2021/11/09 10:43:02;;;;;;;27.48;8.50;;;;;;;;;;5032171;28;20044;-77
2021/11/09 10:45:30;;;;;;;17.42;7.35;;;;;;;;;;5034422;28;20052;-71
2021/11/09 10:48:00;;;;;;;29.33;7.85;;;;;;;;;;5033435;28;20045;-71
2021/11/09 10:50:29;;;;;;;30.33;9.05;;;;;;;;;;5033187;28;20037;-73
2021/11/09 10:53:00;;;;;;;28.27;9.55;;;;;;;;;;5033633;28;20117;-72
2021/11/09 10:55:49;;;;;;;30.48;8.90;;;;;;;;;;5030489;28;20116;-74
2021/11/09 11:04:09;;;;;;;30.30;9.38;;;;;;;;;;5031577;28;20041;-70
2021/11/09 11:06:42;;;;;;;34.25;10.90;;;;;;;;;;5029599;28;20045;-74
2021/11/09 11:09:12;;;;;;;39.00;11.05;;;;;;;;;;5033538;28;20048;-75
2021/11/09 11:12:06;;;;;;;43.08;10.13;;;;;;;;;;5033669;28;20057;-70
2021/11/09 11:14:35;;;;;;;31.65;9.63;;;;;;;;;;5032962;28;20123;-75
2021/11/09 11:17:04;;;;;;;41.15;11.30;;;;;;;;;;5033347;28;20042;-72
2021/11/09 11:19:33;;;;;;;25.15;10.45;;;;;;;;;;5032688;28;20061;-75
2021/11/09 11:22:03;;;;;;;29.65;9.60;;;;;;;;;;5033967;28;20124;-71
2021/11/09 11:24:31;;;;;;;34.22;11.23;;;;;;;;;;5032896;28;20043;-71
2021/11/09 11:27:00;;;;;;;25.85;9.55;;;;;;;;;;5033555;28;20035;-75
2021/11/09 11:29:30;;;;;;;31.63;10.38;;;;;;;;;;5031509;28;20123;-75
2021/11/09 11:32:00;;;;;;;26.25;10.20;;;;;;;;;;5052575;28;20096;-72
2021/11/09 11:34:28;;;;;;;32.97;10.30;;;;;;;;;;5032065;28;20108;-75
2021/11/09 11:36:57;;;;;;;24.00;9.68;;;;;;;;;;5033502;28;20061;-74
2021/11/09 11:39:26;;;;;;;38.47;10.43;;;;;;;;;;5020212;28;20056;-74
2021/11/09 11:42:01;;;;;;;26.23;9.45;;;;;;;;;;5013711;28;20109;-75
2021/11/09 11:44:32;;;;;;;29.98;10.75;;;;;;;;;;5014038;28;20061;-70
2021/11/09 11:47:13;;;;;;;33.80;11.52;;;;;;;;;;5011989;28;20053;-70
2021/11/09 11:49:41;;;;;;;31.25;10.48;;;;;;;;;;5013622;28;20046;-75
2021/11/09 11:52:11;;;;;;;36.85;11.07;;;;;;;;;;5018396;28;20041;-74
2021/11/09 11:54:38;;;;;;;31.00;10.70;;;;;;;;;;5022190;28;20454;-74
2021/11/09 11:57:06;;;;;;;33.13;11.95;;;;;;;;;;5020937;28;20049;-75
2021/11/09 11:59:37;;;;;;;28.67;11.52;;;;;;;;;;5054755;28;20069;-75
2021/11/09 12:02:06;;;;;;;25.25;10.73;;;;;;;;;;5031100;28;20505;-72
2021/11/09 12:04:43;;;;;;;24.13;11.00;;;;;;;;;;5032954;28;20045;-70
2021/11/09 12:07:15;;;;;;;27.25;11.23;;;;;;;;;;5032834;28;20484;-74
2021/11/09 12:09:43;;;;;;;21.73;10.20;;;;;;;;;;5009669;28;20046;-70
2021/11/09 12:12:21;;;;;;;28.70;10.43;;;;;;;;;;5013435;28;20046;-70
2021/11/09 12:14:57;;;;;;;23.17;12.02;;;;;;;;;;5029769;28;20654;-75
2021/11/09 12:17:35;;;;;;;32.80;12.55;;;;;;;;;;5030144;28;20049;-75
2021/11/09 12:20:26;;;;;;;27.90;13.30;;;;;;;;;;5029649;28;20100;-72
2021/11/09 12:22:57;;;;;;;31.52;13.57;;;;;;;;;;5026759;28;20144;-70
2021/11/09 12:25:34;;;;;;;31.52;13.07;;;;;;;;;;5030303;28;20453;-71
2021/11/09 12:28:03;;;;;;;28.25;14.23;;;;;;;;;;5030084;28;20046;-75
2021/11/09 12:33:16;;;;;;;36.45;13.32;;;;;;;;;;5029343;28;20045;-70
2021/11/09 12:36:05;;;;;;;35.65;15.45;;;;;;;;;;5028343;28;20111;-75
2021/11/09 12:38:36;;;;;;;31.70;15.05;;;;;;;;;;5030066;28;20041;-72
2021/11/09 12:41:24;;;;;;;33.80;15.52;;;;;;;;;;5029847;28;20511;-71
2021/11/09 12:43:53;;;;;;;29.45;14.98;;;;;;;;;;5028541;28;20068;-75
2021/11/09 12:46:38;;;;;;;28.05;14.48;;;;;;;;;;5030094;28;20049;-70
2021/11/09 12:49:07;;;;;;;42.28;15.77;;;;;;;;;;5011779;28;20091;-72
2021/11/09 12:51:43;;;;;;;26.13;14.63;;;;;;;;;;5032969;28;20121;-75
2021/11/09 12:54:18;;;;;;;25.27;12.90;;;;;;;;;;5032793;28;20445;-74
2021/11/09 12:56:56;;;;;;;30.42;13.55;;;;;;;;;;5064247;28;20441;-71
2021/11/09 13:02:13;;;;;;;31.83;15.57;;;;;;;;;;5032728;28;20049;-70
2021/11/09 13:07:36;;;;;;;35.47;14.68;;;;;;;;;;5032466;28;20460;-74
2021/11/09 13:10:08;;;;;;;30.10;14.50;;;;;;;;;;5032078;28;20052;-74
2021/11/09 13:12:36;;;;;;;33.90;16.35;;;;;;;;;;5031941;28;20042;-76
2021/11/09 13:15:07;;;;;;;30.45;16.63;;;;;;;;;;5032504;28;20048;-74
2021/11/09 13:17:42;;;;;;;27.23;13.23;;;;;;;;;;5031164;28;20045;-73
2021/11/09 13:22:58;;;;;;;28.23;12.90;;;;;;;;;;5031747;28;20076;-71
2021/11/09 13:25:38;;;;;;;30.00;13.40;;;;;;;;;;5031526;28;20045;-75
2021/11/09 13:28:17;;;;;;;22.85;14.10;;;;;;;;;;5031857;28;20464;-73
2021/11/09 13:30:52;;;;;;;28.00;14.38;;;;;;;;;;5034667;28;20037;-70
2021/11/09 13:33:23;;;;;;;29.45;15.20;;;;;;;;;;5035260;28;20037;-75
2021/11/09 13:35:52;;;;;;;24.20;13.40;;;;;;;;;;5035349;28;20572;-75
2021/11/09 13:38:36;;;;;;;26.60;15.75;;;;;;;;;;5035304;28;20434;-75
2021/11/09 13:41:04;;;;;;;32.10;15.80;;;;;;;;;;5031774;28;20061;-73
2021/11/09 13:43:39;;;;;;;28.50;15.10;;;;;;;;;;5035227;28;20095;-75
2021/11/09 13:46:11;;;;;;;33.17;15.45;;;;;;;;;;5035107;28;20129;-75
2021/11/09 13:48:41;;;;;;;27.60;14.90;;;;;;;;;;5034105;28;20106;-72
2021/11/09 13:51:10;;;;;;;25.30;13.05;;;;;;;;;;5034522;28;20647;-70
2021/11/09 13:53:40;;;;;;;32.45;13.93;;;;;;;;;;5034384;28;20128;-75
2021/11/09 13:56:15;;;;;;;21.60;12.70;;;;;;;;;;5035637;28;20057;-74
2021/11/09 13:58:55;;;;;;;28.92;14.52;;;;;;;;;;5035894;28;20099;-72
2021/11/09 14:01:36;;;;;;;30.63;16.45;;;;;;;;;;5036078;28;20124;-76
2021/11/09 14:06:53;;;;;;;24.13;14.48;;;;;;;;;;5035821;28;20048;-76
2021/11/09 14:17:34;;;;;;;21.15;13.65;;;;;;;;;;5033338;28;20621;-75
2021/11/09 14:20:09;;;;;;;27.75;13.23;;;;;;;;;;5033421;28;20136;-72
2021/11/09 14:22:37;;;;;;;26.60;14.45;;;;;;;;;;5031227;28;20057;-76
2021/11/09 14:25:07;;;;;;;23.73;13.63;;;;;;;;;;5029987;28;20041;-75
2021/11/09 14:27:38;;;;;;;26.70;13.77;;;;;;;;;;5032170;28;20536;-75
2021/11/09 14:30:07;;;;;;;27.23;14.02;;;;;;;;;;5032167;28;20045;-76
2021/11/09 14:32:37;;;;;;;24.65;12.18;;;;;;;;;;5031725;28;20073;-72
2021/11/09 14:35:20;;;;;;;22.35;12.18;;;;;;;;;;5031886;28;20045;-70
2021/11/09 14:40:34;;;;;;;24.77;13.05;;;;;;;;;;5031629;28;20168;-76
2021/11/09 14:43:18;;;;;;;25.70;12.75;;;;;;;;;;5031890;28;20144;-75
2021/11/09 14:46:05;;;;;;;;;;;;;;;;;;5033350;28;20129;-75
2021/11/09 14:51:14;;;;;;;18.38;11.27;;;;;;;;;;5025626;28;20552;-70
2021/11/09 14:53:55;;;;;;;29.35;12.68;;;;;;;;;;5032340;28;20165;-72
2021/11/09 14:56:32;;;;;;;27.13;14.05;;;;;;;;;;5032175;28;20041;-75
2021/11/09 14:59:01;;;;;;;20.42;12.63;;;;;;;;;;5034076;28;20038;-72
2021/11/09 15:04:13;;;;;;;25.08;13.20;;;;;;;;;;5033802;28;20052;-70
2021/11/09 15:09:22;;;;;;;28.33;14.18;;;;;;;;;;5033552;28;20034;-70
2021/11/09 15:12:03;;;;;;;23.33;12.88;;;;;;;;;;5033561;28;20040;-71
2021/11/09 15:25:52;;;;;;;27.33;13.15;;;;;;;;;;5033257;28;20535;-70
2021/11/09 15:28:31;;;;;;;28.73;13.25;;;;;;;;;;5032908;28;20038;-75
2021/11/09 15:31:07;;;;;;;21.63;11.48;;;;;;;;;;5033057;28;20386;-72
2021/11/09 15:33:45;;;;;;;21.50;13.85;;;;;;;;;;5031826;28;20046;-75
2021/11/09 15:38:51;;;;;;;19.17;13.18;;;;;;;;;;5032828;28;20236;-75
2021/11/09 15:41:18;;;;;;;29.38;13.52;;;;;;;;;;5033051;28;20125;-75
2021/11/09 15:43:46;;;;;;;25.42;14.00;;;;;;;;;;5031598;28;20041;-75
2021/11/09 15:46:14;;;;;;;31.00;14.30;;;;;;;;;;5032747;28;20075;-70
2021/11/09 15:48:43;;;;;;;25.13;12.90;;;;;;;;;;5045262;28;20033;-71
2021/11/09 15:51:10;;;;;;;28.10;12.68;;;;;;;;;;5015872;28;20041;-75
2021/11/09 15:53:38;;;;;;;27.83;13.13;;;;;;;;;;5031604;28;20278;-75
2021/11/09 15:56:06;;;;;;;27.35;13.35;;;;;;;;;;5032544;28;20088;-75
2021/11/09 15:58:33;;;;;;;26.88;14.02;;;;;;;;;;5032681;28;20409;-75
2021/11/09 16:01:02;;;;;;;24.23;13.32;;;;;;;;;;5032156;28;20045;-75
2021/11/09 16:03:30;;;;;;;26.80;15.00;;;;;;;;;;5032539;28;20042;-75
2021/11/09 16:05:58;;;;;;;27.00;13.45;;;;;;;;;;5031667;28;20560;-76
2021/11/09 16:08:27;;;;;;;31.15;13.63;;;;;;;;;;5030319;28;20078;-70
2021/11/09 16:10:56;;;;;;;29.13;14.77;;;;;;;;;;5032251;28;20091;-75
2021/11/09 16:13:29;;;;;;;29.15;14.13;;;;;;;;;;5032028;28;20412;-75
2021/11/09 16:15:56;;;;;;;22.58;14.18;;;;;;;;;;5032018;28;20129;-75
2021/11/09 16:18:24;;;;;;;29.85;14.23;;;;;;;;;;5032392;28;20041;-75
2021/11/09 16:20:52;;;;;;;29.35;14.73;;;;;;;;;;5031016;28;20055;-75
2021/11/09 16:23:20;;;;;;;27.20;13.38;;;;;;;;;;5031537;28;20567;-75
2021/11/09 16:25:47;;;;;;;24.70;14.00;;;;;;;;;;5028302;28;20561;-75
2021/11/09 16:28:15;;;;;;;26.98;14.45;;;;;;;;;;5028804;28;20493;-75
2021/11/09 16:30:48;;;;;;;31.88;16.17;;;;;;;;;;5031916;28;20355;-72
2021/11/09 16:38:51;;;;;;;30.60;13.77;;;;;;;;;;5023869;28;20053;-75
2021/11/09 16:41:22;;;;;;;25.58;14.52;;;;;;;;;;5032258;28;20049;-70
2021/11/09 16:43:57;;;;;;;28.25;14.68;;;;;;;;;;5031914;28;20136;-75
2021/11/09 16:46:42;;;;;;;32.88;14.80;;;;;;;;;;5032434;28;20046;-75
2021/11/09 16:49:29;;;;;;;27.40;15.85;;;;;;;;;;5031924;28;20100;-75
2021/11/09 16:52:09;;;;;;;30.30;14.75;;;;;;;;;;5032385;28;20038;-74
2021/11/09 16:54:41;;;;;;;26.15;15.13;;;;;;;;;;5030851;28;20041;-76
2021/11/09 17:00:12;;;;;;;31.13;15.23;;;;;;;;;;5032190;28;20120;-75
2021/11/09 17:02:59;;;;;;;19.67;11.77;;;;;;;;;;5032205;28;20384;-70
2021/11/09 17:18:43;;;;;;;28.08;14.68;;;;;;;;;;5035787;28;20511;-75
2021/11/09 18:20:04;;;;;;;23.52;12.82;;;;;;;;;;5033481;28;20143;-75
2021/11/09 18:22:34;;;;;;;26.98;12.93;;;;;;;;;;5034601;28;20385;-76
2021/11/09 18:25:05;;;;;;;20.85;12.10;;;;;;;;;;5034736;28;20050;-76
2021/11/09 18:27:32;;;;;;;17.88;11.25;;;;;;;;;;5034606;28;20043;-76
2021/11/09 18:30:00;;;;;;;23.55;11.60;;;;;;;;;;5033272;28;20037;-75
2021/11/09 18:32:30;;;;;;;20.90;12.18;;;;;;;;;;5030114;28;20048;-71
2021/11/09 18:34:57;;;;;;;19.42;11.43;;;;;;;;;;5034570;28;20045;-70
2021/11/09 18:37:25;;;;;;;23.58;12.02;;;;;;;;;;5033566;28;20120;-75
2021/11/09 18:39:54;;;;;;;26.15;12.35;;;;;;;;;;5034507;28;20076;-72
2021/11/09 18:42:26;;;;;;;24.77;12.60;;;;;;;;;;5034418;28;20524;-70
2021/11/09 18:44:54;;;;;;;19.48;12.57;;;;;;;;;;5033818;28;20481;-73
2021/11/09 18:47:22;;;;;;;26.17;12.80;;;;;;;;;;5033923;28;20034;-76
2021/11/09 18:49:49;;;;;;;19.55;11.98;;;;;;;;;;5033728;28;20448;-71
2021/11/09 18:52:18;;;;;;;25.25;13.05;;;;;;;;;;5033006;28;20069;-70
2021/11/09 18:54:47;;;;;;;26.77;13.18;;;;;;;;;;5033777;28;20043;-70
2021/11/09 18:57:14;;;;;;;29.30;12.85;;;;;;;;;;5034134;28;20041;-76
2021/11/09 18:59:42;;;;;;;29.77;13.68;;;;;;;;;;5033931;28;20041;-70
2021/11/09 19:02:10;;;;;;;22.10;12.80;;;;;;;;;;5033697;28;20046;-76
2021/11/09 19:04:39;;;;;;;24.60;12.70;;;;;;;;;;5033560;28;20045;-70